createdAt,value
2017-03-29T00:00:59.049Z,22.39
2017-03-29T00:02:08.981Z,22.4
2017-03-29T00:03:18.908Z,22.39
2017-03-29T00:04:29.508Z,22.31
2017-03-29T00:05:39.421Z,22.33
2017-03-29T00:06:48.714Z,22.33
2017-03-29T00:07:58.930Z,22.35
2017-03-29T00:09:09.156Z,22.31
2017-03-29T00:10:19.364Z,22.31
2017-03-29T00:11:29.293Z,22.27
2017-03-29T00:12:39.510Z,22.36
2017-03-29T00:13:49.427Z,22.27
2017-03-29T00:14:59.342Z,22.31
2017-03-29T00:16:09.657Z,22.31
2017-03-29T00:17:19.874Z,22.25
2017-03-29T00:18:29.784Z,22.31
2017-03-29T00:19:39.711Z,22.33
2017-03-29T00:20:49.928Z,22.3
2017-03-29T00:22:00.594Z,22.24
2017-03-29T00:23:10.501Z,22.31
2017-03-29T00:24:20.105Z,22.3
2017-03-29T00:25:29.412Z,22.28
2017-03-29T00:26:39.313Z,22.28
2017-03-29T00:27:49.928Z,22.3
2017-03-29T00:28:59.846Z,22.25
2017-03-29T00:30:09.444Z,22.3
2017-03-29T00:31:19.345Z,22.28
2017-03-29T00:32:29.256Z,22.31
2017-03-29T00:33:39.865Z,22.3
2017-03-29T00:34:49.774Z,22.24
2017-03-29T00:35:59.377Z,22.33
2017-03-29T00:37:09.277Z,22.28
2017-03-29T00:38:19.494Z,22.33
2017-03-29T00:39:29.545Z,22.24
2017-03-29T00:40:39.152Z,22.3
2017-03-29T00:41:48.770Z,22.22
2017-03-29T00:42:58.990Z,22.28
2017-03-29T00:44:09.216Z,22.33
2017-03-29T00:45:19.132Z,22.28
2017-03-29T00:46:29.382Z,22.24
2017-03-29T00:47:38.981Z,22.25
2017-03-29T00:48:48.903Z,22.3
2017-03-29T00:49:59.121Z,22.25
2017-03-29T00:51:08.878Z,22.25
2017-03-29T00:52:18.793Z,22.28
2017-03-29T00:53:28.709Z,22.28
2017-03-29T00:54:38.317Z,22.2
2017-03-29T00:55:48.537Z,22.27
2017-03-29T00:56:58.504Z,22.21
2017-03-29T00:58:08.737Z,22.24
2017-03-29T00:59:18.964Z,22.25
2017-03-29T01:00:28.572Z,22.24
2017-03-29T01:01:38.489Z,22.2
2017-03-29T01:02:48.997Z,22.28
2017-03-29T01:03:58.897Z,22.17
2017-03-29T01:05:09.109Z,22.21
2017-03-29T01:06:19.040Z,22.27
2017-03-29T01:07:28.658Z,22.22
2017-03-29T01:08:38.413Z,22.18
2017-03-29T01:09:48.379Z,22.18
2017-03-29T01:10:58.288Z,22.21
2017-03-29T01:12:08.510Z,22.24
2017-03-29T01:13:18.736Z,22.21
2017-03-29T01:14:28.809Z,22.21
2017-03-29T01:15:38.724Z,22.22
2017-03-29T01:16:48.930Z,22.18
2017-03-29T01:17:58.559Z,22.22
2017-03-29T01:19:08.175Z,22.18
2017-03-29T01:20:18.645Z,22.17
2017-03-29T01:21:28.876Z,22.17
2017-03-29T01:22:39.109Z,22.17
2017-03-29T01:23:49.028Z,22.18
2017-03-29T01:24:58.630Z,22.2
2017-03-29T01:26:08.896Z,22.21
2017-03-29T01:27:18.802Z,22.22
2017-03-29T01:28:29.031Z,22.21
2017-03-29T01:29:39.254Z,22.18
2017-03-29T01:30:49.164Z,22.22
2017-03-29T01:31:58.716Z,22.21
2017-03-29T01:33:08.616Z,22.22
2017-03-29T01:34:17.925Z,22.21
2017-03-29T01:35:27.835Z,22.24
2017-03-29T01:36:38.060Z,22.21
2017-03-29T01:37:48.270Z,22.21
2017-03-29T01:38:58.490Z,22.21
2017-03-29T01:40:08.403Z,22.21
2017-03-29T01:41:18.674Z,22.25
2017-03-29T01:42:28.576Z,22.22
2017-03-29T01:43:39.495Z,22.2
2017-03-29T01:44:49.396Z,22.21
2017-03-29T01:45:59.648Z,22.15
2017-03-29T01:47:08.952Z,22.07
2017-03-29T01:48:18.856Z,22.24
2017-03-29T01:49:29.224Z,22.21
2017-03-29T01:50:38.821Z,22.2
2017-03-29T01:53:30.720Z,22.14
2017-03-29T01:54:40.772Z,22.24
2017-03-29T01:55:50.985Z,22.22
2017-03-29T01:57:00.647Z,22.2
2017-03-29T01:58:10.248Z,22.12
2017-03-29T01:59:20.155Z,22.15
2017-03-29T02:00:30.529Z,22.1
2017-03-29T02:01:40.131Z,22.17
2017-03-29T02:02:49.729Z,22.1
2017-03-29T02:03:59.946Z,22.18
2017-03-29T02:05:10.161Z,22.17
2017-03-29T02:06:20.543Z,22.1
2017-03-29T02:07:30.450Z,22.03
2017-03-29T02:08:39.758Z,22.12
2017-03-29T02:09:49.970Z,22.07
2017-03-29T02:11:00.185Z,22.14
2017-03-29T02:12:10.551Z,22.07
2017-03-29T02:13:20.462Z,22.06
2017-03-29T02:14:30.359Z,22.18
2017-03-29T02:15:40.261Z,22.18
2017-03-29T02:16:49.568Z,22.05
2017-03-29T02:17:59.659Z,22.05
2017-03-29T02:19:09.263Z,22.18
2017-03-29T02:20:19.170Z,22.05
2017-03-29T02:21:29.083Z,22.02
2017-03-29T02:22:38.688Z,22.05
2017-03-29T02:23:49.051Z,22.06
2017-03-29T02:24:58.962Z,22.05
2017-03-29T02:26:08.861Z,22.02
2017-03-29T02:27:18.468Z,22.09
2017-03-29T02:28:28.069Z,22.1
2017-03-29T02:29:38.443Z,22.09
2017-03-29T02:30:48.353Z,22.05
2017-03-29T02:31:58.568Z,22.03
2017-03-29T02:33:08.495Z,22.07
2017-03-29T02:34:18.705Z,22.07
2017-03-29T02:35:28.767Z,22.06
2017-03-29T02:36:38.371Z,22.09
2017-03-29T02:37:48.285Z,22.05
2017-03-29T02:38:58.188Z,22.1
2017-03-29T02:40:07.493Z,22.06
2017-03-29T02:41:17.265Z,22.12
2017-03-29T02:42:27.177Z,22.07
2017-03-29T02:43:36.773Z,22.17
2017-03-29T02:44:46.712Z,22.12
2017-03-29T02:45:56.621Z,22.12
2017-03-29T02:47:06.633Z,22.06
2017-03-29T02:48:16.554Z,22.09
2017-03-29T02:49:26.163Z,22.1
2017-03-29T02:50:36.066Z,22.09
2017-03-29T02:51:45.994Z,21.94
2017-03-29T02:52:55.989Z,22.02
2017-03-29T02:54:05.900Z,21.98
2017-03-29T02:55:16.115Z,22.1
2017-03-29T02:56:26.032Z,21.96
2017-03-29T02:57:36.255Z,21.98
2017-03-29T02:58:46.260Z,21.96
2017-03-29T02:59:55.888Z,22.05
2017-03-29T03:01:05.509Z,22.02
2017-03-29T03:02:15.110Z,21.98
2017-03-29T03:03:25.010Z,22
2017-03-29T03:04:35.326Z,21.98
2017-03-29T03:05:45.250Z,21.98
2017-03-29T03:06:55.464Z,21.98
2017-03-29T03:08:05.675Z,21.98
2017-03-29T03:09:15.890Z,22.07
2017-03-29T03:10:25.946Z,21.96
2017-03-29T03:11:36.192Z,21.98
2017-03-29T03:12:45.793Z,21.94
2017-03-29T03:13:55.996Z,22.02
2017-03-29T03:15:05.587Z,22
2017-03-29T03:16:15.656Z,21.96
2017-03-29T03:17:25.869Z,21.92
2017-03-29T03:18:36.105Z,21.99
2017-03-29T03:19:46.310Z,22
2017-03-29T03:20:56.541Z,21.91
2017-03-29T03:22:06.607Z,21.94
2017-03-29T03:23:16.212Z,22
2017-03-29T03:24:25.815Z,22.06
2017-03-29T03:25:36.027Z,21.94
2017-03-29T03:26:45.945Z,21.99
2017-03-29T03:27:56.335Z,21.94
2017-03-29T03:29:06.258Z,21.98
2017-03-29T03:30:15.561Z,22
2017-03-29T03:31:25.771Z,21.96
2017-03-29T03:32:36.002Z,21.94
2017-03-29T03:33:46.263Z,21.98
2017-03-29T03:34:56.186Z,22.03
2017-03-29T03:36:06.095Z,22
2017-03-29T03:37:16.016Z,21.99
2017-03-29T03:38:25.614Z,21.98
2017-03-29T03:39:36.022Z,21.98
2017-03-29T03:40:46.240Z,21.98
2017-03-29T03:41:56.468Z,21.98
2017-03-29T03:43:06.683Z,21.96
2017-03-29T03:44:16.598Z,22.02
2017-03-29T03:45:26.687Z,22
2017-03-29T03:46:36.609Z,21.96
2017-03-29T03:47:46.512Z,21.94
2017-03-29T03:48:56.116Z,21.99
2017-03-29T03:50:06.349Z,21.94
2017-03-29T03:51:16.721Z,21.98
2017-03-29T03:52:26.037Z,21.96
2017-03-29T03:53:36.255Z,21.96
2017-03-29T03:54:46.488Z,22
2017-03-29T03:55:56.406Z,22
2017-03-29T03:57:06.780Z,21.98
2017-03-29T03:58:17.007Z,21.96
2017-03-29T03:59:27.221Z,21.96
2017-03-29T04:00:36.825Z,21.94
2017-03-29T04:01:46.127Z,22.02
2017-03-29T04:02:55.868Z,22.06
2017-03-29T04:04:06.082Z,21.98
2017-03-29T04:05:16.299Z,21.99
2017-03-29T04:06:26.208Z,21.99
2017-03-29T04:07:36.444Z,22.02
2017-03-29T04:08:46.829Z,21.9
2017-03-29T04:09:56.735Z,22.02
2017-03-29T04:11:06.356Z,22.02
2017-03-29T04:12:16.594Z,21.94
2017-03-29T04:13:26.824Z,21.88
2017-03-29T04:14:36.884Z,22.02
2017-03-29T04:15:47.095Z,21.96
2017-03-29T04:16:56.387Z,21.88
2017-03-29T04:18:06.292Z,21.99
2017-03-29T04:19:16.199Z,21.99
2017-03-29T04:20:26.253Z,22
2017-03-29T04:21:36.154Z,21.94
2017-03-29T04:22:46.063Z,21.99
2017-03-29T04:23:55.981Z,21.99
2017-03-29T04:25:06.236Z,21.96
2017-03-29T04:26:16.844Z,21.94
2017-03-29T04:27:26.743Z,21.96
2017-03-29T04:28:36.696Z,21.96
2017-03-29T04:29:46.673Z,21.98
2017-03-29T04:30:56.902Z,22.03
2017-03-29T04:32:06.980Z,22
2017-03-29T04:33:16.911Z,21.91
2017-03-29T04:34:27.160Z,22.02
2017-03-29T04:35:37.078Z,21.96
2017-03-29T04:36:46.978Z,21.96
2017-03-29T04:37:57.368Z,21.98
2017-03-29T04:39:07.270Z,21.98
2017-03-29T04:40:17.208Z,22.03
2017-03-29T04:41:27.111Z,22.07
2017-03-29T04:42:37.378Z,22.06
2017-03-29T04:43:47.740Z,22.27
2017-03-29T04:44:57.341Z,22.21
2017-03-29T04:46:07.569Z,22.15
2017-03-29T04:47:17.487Z,22.2
2017-03-29T04:48:26.235Z,22.2
2017-03-29T04:49:36.269Z,22.27
2017-03-29T04:50:45.882Z,22.36
2017-03-29T04:51:56.110Z,22.28
2017-03-29T04:53:05.741Z,22.31
2017-03-29T04:54:15.351Z,22.4
2017-03-29T04:55:25.677Z,22.36
2017-03-29T04:56:35.582Z,22.36
2017-03-29T04:57:45.212Z,22.46
2017-03-29T04:58:54.856Z,22.42
2017-03-29T05:00:05.089Z,22.55
2017-03-29T05:01:15.126Z,22.58
2017-03-29T05:02:24.744Z,22.58
2017-03-29T05:03:34.973Z,22.67
2017-03-29T05:04:44.569Z,22.58
2017-03-29T05:05:53.879Z,22.65
2017-03-29T05:07:03.908Z,22.8
2017-03-29T05:08:13.498Z,22.76
2017-03-29T05:09:23.724Z,22.83
2017-03-29T05:10:33.953Z,22.9
2017-03-29T05:11:44.185Z,22.9
2017-03-29T05:12:54.714Z,22.86
2017-03-29T05:14:04.618Z,22.98
2017-03-29T05:15:14.836Z,23.05
2017-03-29T05:16:24.449Z,23.05
2017-03-29T05:17:34.677Z,23.12
2017-03-29T05:18:44.757Z,23.07
2017-03-29T05:19:54.072Z,23.2
2017-03-29T05:21:03.969Z,23.15
2017-03-29T05:22:13.920Z,23.15
2017-03-29T05:23:24.164Z,23.27
2017-03-29T05:24:33.913Z,23.4
2017-03-29T05:25:43.826Z,23.39
2017-03-29T05:26:53.110Z,23.42
2017-03-29T05:28:02.391Z,23.48
2017-03-29T05:29:11.999Z,23.48
2017-03-29T05:30:22.419Z,23.58
2017-03-29T05:31:32.628Z,23.6
2017-03-29T05:32:42.533Z,23.66
2017-03-29T05:33:52.741Z,23.69
2017-03-29T05:35:02.032Z,23.84
2017-03-29T05:36:12.084Z,23.69
2017-03-29T05:37:21.372Z,23.8
2017-03-29T05:38:31.286Z,23.8
2017-03-29T05:39:41.212Z,23.87
2017-03-29T05:40:51.420Z,23.98
2017-03-29T05:42:01.777Z,23.83
2017-03-29T05:43:12.052Z,23.94
2017-03-29T05:44:21.957Z,23.95
2017-03-29T05:45:31.867Z,23.93
2017-03-29T05:46:41.784Z,24
2017-03-29T05:47:51.885Z,24
2017-03-29T05:49:01.472Z,24.09
2017-03-29T05:50:11.072Z,24.1
2017-03-29T05:51:20.987Z,24.09
2017-03-29T05:52:31.207Z,24.18
2017-03-29T05:53:40.963Z,24.08
2017-03-29T05:54:51.199Z,24.16
2017-03-29T05:56:01.120Z,24.09
2017-03-29T05:57:11.035Z,24.09
2017-03-29T05:58:21.256Z,24.22
2017-03-29T05:59:31.318Z,24.12
2017-03-29T06:00:41.228Z,24.05
2017-03-29T06:01:51.135Z,24.12
2017-03-29T06:03:01.047Z,24.18
2017-03-29T06:04:11.269Z,24.13
2017-03-29T06:05:21.352Z,24.2
2017-03-29T06:06:31.247Z,24.12
2017-03-29T06:07:41.148Z,24.06
2017-03-29T06:08:51.044Z,24.06
2017-03-29T06:10:00.032Z,24.1
2017-03-29T06:11:09.783Z,24.06
2017-03-29T06:12:20.016Z,24.09
2017-03-29T06:13:29.618Z,24.05
2017-03-29T06:14:39.527Z,24.02
2017-03-29T06:15:49.138Z,24.03
2017-03-29T06:16:59.498Z,23.97
2017-03-29T06:18:09.425Z,24.12
2017-03-29T06:19:19.631Z,24.02
2017-03-29T06:20:29.851Z,24.02
2017-03-29T06:21:40.136Z,23.98
2017-03-29T06:22:49.900Z,23.94
2017-03-29T06:24:00.109Z,23.93
2017-03-29T06:25:10.025Z,23.98
2017-03-29T06:26:19.324Z,23.95
2017-03-29T06:27:29.227Z,23.91
2017-03-29T06:28:38.670Z,23.9
2017-03-29T06:29:48.576Z,23.91
2017-03-29T06:30:58.171Z,23.87
2017-03-29T06:32:08.083Z,23.87
2017-03-29T06:33:17.995Z,23.87
2017-03-29T06:34:28.353Z,23.85
2017-03-29T06:35:38.560Z,23.83
2017-03-29T06:36:48.152Z,23.8
2017-03-29T06:37:57.763Z,23.73
2017-03-29T06:39:07.687Z,23.72
2017-03-29T06:40:18.052Z,23.79
2017-03-29T06:41:28.278Z,23.78
2017-03-29T06:42:38.502Z,23.79
2017-03-29T06:43:48.099Z,23.73
2017-03-29T06:44:57.996Z,23.73
2017-03-29T06:46:08.056Z,23.68
2017-03-29T06:47:17.972Z,23.72
2017-03-29T06:48:27.581Z,23.68
2017-03-29T06:49:37.496Z,23.79
2017-03-29T06:50:47.117Z,23.72
2017-03-29T06:51:56.824Z,23.63
2017-03-29T06:53:06.744Z,23.69
2017-03-29T06:54:16.654Z,23.7
2017-03-29T06:55:26.864Z,23.66
2017-03-29T06:56:36.778Z,23.72
2017-03-29T06:57:46.472Z,23.66
2017-03-29T06:58:56.382Z,23.63
2017-03-29T07:00:05.983Z,23.66
2017-03-29T07:01:15.286Z,23.72
2017-03-29T07:02:25.197Z,23.7
2017-03-29T07:03:35.216Z,23.66
2017-03-29T07:04:44.898Z,23.83
2017-03-29T07:05:54.789Z,23.79
2017-03-29T07:07:05.025Z,23.84
2017-03-29T07:08:14.950Z,23.78
2017-03-29T07:09:24.702Z,23.8
2017-03-29T07:10:34.318Z,23.68
2017-03-29T07:11:44.225Z,23.75
2017-03-29T07:12:54.191Z,23.73
2017-03-29T07:14:04.103Z,23.73
2017-03-29T07:15:14.121Z,23.72
2017-03-29T07:16:24.048Z,23.72
2017-03-29T07:17:33.667Z,23.66
2017-03-29T07:18:43.329Z,23.72
2017-03-29T07:19:52.928Z,23.7
2017-03-29T07:21:02.988Z,23.7
2017-03-29T07:22:13.201Z,23.75
2017-03-29T07:23:23.420Z,23.76
2017-03-29T07:24:32.722Z,23.73
2017-03-29T07:25:42.330Z,23.73
2017-03-29T07:26:52.707Z,23.7
2017-03-29T07:28:02.932Z,23.58
2017-03-29T07:29:12.531Z,23.73
2017-03-29T07:30:22.763Z,23.7
2017-03-29T07:31:32.673Z,23.76
2017-03-29T07:32:43.054Z,23.75
2017-03-29T07:33:52.957Z,23.76
2017-03-29T07:35:02.869Z,23.79
2017-03-29T07:36:13.090Z,23.72
2017-03-29T07:37:23.312Z,23.88
2017-03-29T07:38:33.372Z,23.88
2017-03-29T07:39:43.291Z,23.9
2017-03-29T07:40:53.211Z,23.88
2017-03-29T07:42:03.430Z,23.83
2017-03-29T07:43:13.367Z,23.8
2017-03-29T07:44:23.738Z,23.8
2017-03-29T07:45:33.657Z,23.87
2017-03-29T07:46:43.567Z,23.72
2017-03-29T07:47:53.173Z,23.79
2017-03-29T07:49:03.436Z,23.79
2017-03-29T07:50:13.196Z,23.78
2017-03-29T07:51:22.794Z,23.78
2017-03-29T07:52:33.010Z,23.7
2017-03-29T07:53:43.240Z,23.7
2017-03-29T07:54:53.467Z,23.68
2017-03-29T07:56:03.735Z,23.73
2017-03-29T07:57:13.653Z,23.79
2017-03-29T07:58:23.867Z,23.69
2017-03-29T07:59:34.064Z,23.79
2017-03-29T08:00:43.678Z,23.87
2017-03-29T08:01:53.635Z,23.85
2017-03-29T08:03:03.863Z,23.85
2017-03-29T08:04:13.767Z,23.85
2017-03-29T08:05:23.686Z,23.94
2017-03-29T08:06:33.279Z,23.94
2017-03-29T08:07:43.322Z,23.84
2017-03-29T08:08:53.216Z,23.8
2017-03-29T08:10:03.422Z,23.9
2017-03-29T08:11:13.022Z,23.93
2017-03-29T08:12:22.922Z,23.85
2017-03-29T08:13:32.682Z,23.87
2017-03-29T08:14:42.593Z,23.9
2017-03-29T08:15:51.893Z,23.88
2017-03-29T08:17:01.808Z,23.85
2017-03-29T08:18:12.116Z,23.94
2017-03-29T08:19:22.547Z,23.95
2017-03-29T08:20:32.782Z,23.91
2017-03-29T08:21:42.392Z,23.95
2017-03-29T08:22:52.354Z,24.02
2017-03-29T08:24:02.572Z,24.02
2017-03-29T08:25:12.644Z,24.06
2017-03-29T08:26:22.575Z,24.03
2017-03-29T08:27:32.190Z,24.08
2017-03-29T08:28:42.406Z,24.15
2017-03-29T08:29:52.314Z,24.1
2017-03-29T08:31:02.075Z,24.08
2017-03-29T08:32:11.693Z,24.12
2017-03-29T08:33:21.918Z,24.21
2017-03-29T08:34:31.834Z,24.21
2017-03-29T08:35:41.748Z,24.18
2017-03-29T08:36:52.144Z,24.2
2017-03-29T08:38:02.383Z,24.2
2017-03-29T08:39:12.606Z,24.21
2017-03-29T08:40:22.827Z,24.08
2017-03-29T08:41:32.751Z,24.06
2017-03-29T08:42:43.121Z,24.05
2017-03-29T08:43:53.036Z,24.13
2017-03-29T08:45:02.346Z,24.12
2017-03-29T08:46:12.569Z,24.15
2017-03-29T08:47:22.180Z,24.09
2017-03-29T08:48:32.243Z,24.1
2017-03-29T08:49:42.487Z,24.15
2017-03-29T08:50:52.117Z,24.05
2017-03-29T08:52:01.724Z,24.09
2017-03-29T08:53:11.648Z,24.2
2017-03-29T08:54:21.349Z,24.13
2017-03-29T08:55:31.285Z,24.2
2017-03-29T08:56:41.744Z,24.15
2017-03-29T08:57:51.045Z,24.08
2017-03-29T08:59:00.363Z,24.05
2017-03-29T09:00:10.373Z,24.2
2017-03-29T09:01:20.617Z,24.21
2017-03-29T09:02:30.533Z,24.2
2017-03-29T09:03:40.147Z,24.27
2017-03-29T09:04:50.735Z,24.25
2017-03-29T09:06:00.764Z,24.21
2017-03-29T09:07:10.987Z,24.12
2017-03-29T09:08:21.198Z,24.1
2017-03-29T09:09:31.108Z,24.21
2017-03-29T09:10:40.411Z,24.25
2017-03-29T09:11:50.422Z,24.2
2017-03-29T09:13:00.329Z,24.22
2017-03-29T09:14:10.251Z,24.09
2017-03-29T09:15:20.155Z,24.15
2017-03-29T09:16:29.773Z,24.03
2017-03-29T09:17:40.088Z,24.06
2017-03-29T09:18:50.027Z,24.06
2017-03-29T09:20:00.029Z,24.12
2017-03-29T09:21:09.947Z,24.1
2017-03-29T09:22:19.875Z,24.09
2017-03-29T09:23:30.244Z,24.03
2017-03-29T09:24:40.454Z,24.03
2017-03-29T09:25:50.070Z,24.05
2017-03-29T09:26:59.998Z,23.95
2017-03-29T09:28:10.214Z,23.94
2017-03-29T09:29:20.581Z,23.95
2017-03-29T09:30:30.497Z,23.88
2017-03-29T09:31:40.434Z,23.87
2017-03-29T09:32:50.652Z,23.95
2017-03-29T09:34:00.895Z,23.95
2017-03-29T09:35:11.257Z,23.87
2017-03-29T09:36:20.863Z,23.9
2017-03-29T09:37:30.774Z,23.85
2017-03-29T09:38:40.687Z,23.88
2017-03-29T09:39:50.917Z,23.87
2017-03-29T09:41:00.682Z,23.88
2017-03-29T09:42:10.590Z,23.88
2017-03-29T09:43:20.526Z,23.9
2017-03-29T09:44:30.439Z,23.88
2017-03-29T09:45:40.052Z,23.88
2017-03-29T09:46:50.529Z,23.87
2017-03-29T09:48:00.478Z,23.85
2017-03-29T09:49:10.415Z,23.84
2017-03-29T09:50:20.630Z,23.83
2017-03-29T09:51:29.632Z,23.85
2017-03-29T09:52:39.078Z,23.8
2017-03-29T09:53:48.743Z,23.78
2017-03-29T09:54:58.353Z,23.75
2017-03-29T09:56:07.973Z,23.72
2017-03-29T09:57:17.585Z,23.73
2017-03-29T09:58:27.657Z,23.66
2017-03-29T09:59:37.592Z,23.73
2017-03-29T10:00:47.818Z,23.7
2017-03-29T10:01:57.426Z,23.76
2017-03-29T10:03:07.364Z,23.78
2017-03-29T10:04:17.131Z,23.73
2017-03-29T10:05:27.039Z,23.73
2017-03-29T10:06:36.059Z,23.68
2017-03-29T10:07:46.282Z,23.73
2017-03-29T10:08:56.190Z,23.7
2017-03-29T10:10:05.947Z,23.68
2017-03-29T10:11:15.248Z,23.69
2017-03-29T10:12:25.507Z,23.7
2017-03-29T10:13:35.423Z,23.72
2017-03-29T10:14:45.031Z,23.73
2017-03-29T10:15:54.496Z,23.68
2017-03-29T10:17:04.132Z,23.66
2017-03-29T10:18:14.067Z,23.7
2017-03-29T10:19:23.371Z,23.63
2017-03-29T10:20:33.324Z,23.63
2017-03-29T10:21:43.400Z,23.66
2017-03-29T10:22:53.315Z,23.63
2017-03-29T10:24:03.226Z,23.61
2017-03-29T10:25:13.153Z,23.66
2017-03-29T10:26:22.455Z,23.63
2017-03-29T10:27:32.212Z,23.66
2017-03-29T10:28:42.124Z,23.63
2017-03-29T10:29:51.724Z,23.63
2017-03-29T10:31:01.957Z,23.54
2017-03-29T10:32:11.913Z,23.63
2017-03-29T10:33:22.347Z,23.6
2017-03-29T10:34:31.966Z,23.55
2017-03-29T10:35:41.272Z,23.53
2017-03-29T10:36:51.538Z,23.57
2017-03-29T10:38:01.154Z,23.57
2017-03-29T10:39:10.890Z,23.5
2017-03-29T10:40:20.791Z,23.53
2017-03-29T10:41:30.705Z,23.47
2017-03-29T10:42:40.306Z,23.51
2017-03-29T10:43:50.213Z,23.47
2017-03-29T10:44:59.664Z,23.47
2017-03-29T10:46:09.263Z,23.48
2017-03-29T10:47:18.882Z,23.42
2017-03-29T10:48:28.789Z,23.43
2017-03-29T10:49:38.990Z,23.46
2017-03-29T10:50:49.319Z,23.4
2017-03-29T10:51:59.230Z,23.35
2017-03-29T10:53:09.467Z,23.43
2017-03-29T10:54:18.772Z,23.36
2017-03-29T10:55:28.692Z,23.36
2017-03-29T10:56:38.725Z,23.38
2017-03-29T10:57:48.946Z,23.32
2017-03-29T10:58:58.873Z,23.35
2017-03-29T11:00:08.485Z,23.31
2017-03-29T11:01:18.738Z,23.39
2017-03-29T11:02:29.061Z,23.39
2017-03-29T11:03:38.372Z,23.35
2017-03-29T11:04:48.583Z,23.43
2017-03-29T11:05:58.192Z,23.35
2017-03-29T11:07:08.104Z,23.38
2017-03-29T11:08:18.134Z,23.46
2017-03-29T11:09:27.794Z,23.4
2017-03-29T11:10:37.411Z,23.4
2017-03-29T11:11:46.706Z,23.48
2017-03-29T11:12:56.314Z,23.47
2017-03-29T11:14:05.408Z,23.48
2017-03-29T11:15:15.308Z,23.51
2017-03-29T11:16:25.217Z,23.53
2017-03-29T11:17:35.134Z,23.53
2017-03-29T11:18:44.762Z,23.5
2017-03-29T11:19:54.478Z,23.48
2017-03-29T11:21:03.793Z,23.53
2017-03-29T11:22:14.015Z,23.53
2017-03-29T11:23:23.917Z,23.54
2017-03-29T11:24:34.141Z,23.51
2017-03-29T11:25:44.194Z,23.5
2017-03-29T11:26:53.800Z,23.5
2017-03-29T11:28:03.408Z,23.46
2017-03-29T11:29:13.351Z,23.46
2017-03-29T11:30:23.268Z,23.48
2017-03-29T11:31:33.325Z,23.51
2017-03-29T11:32:43.537Z,23.53
2017-03-29T11:33:53.162Z,23.53
2017-03-29T11:35:03.110Z,23.55
2017-03-29T11:36:12.745Z,23.46
2017-03-29T11:37:22.802Z,23.47
2017-03-29T11:38:32.723Z,23.5
2017-03-29T11:39:42.665Z,23.53
2017-03-29T11:40:52.587Z,23.5
2017-03-29T11:42:02.794Z,23.4
2017-03-29T11:43:13.163Z,23.46
2017-03-29T11:44:23.404Z,23.47
2017-03-29T11:45:34.018Z,23.43
2017-03-29T11:46:44.233Z,23.51
2017-03-29T11:47:54.455Z,23.46
2017-03-29T11:49:04.223Z,23.48
2017-03-29T11:50:14.475Z,23.53
2017-03-29T11:51:24.095Z,23.53
2017-03-29T11:52:34.009Z,23.5
2017-03-29T11:53:43.311Z,23.43
2017-03-29T11:54:53.670Z,23.53
2017-03-29T11:56:03.281Z,23.51
2017-03-29T11:57:12.583Z,23.57
2017-03-29T11:58:22.809Z,23.54
2017-03-29T11:59:33.013Z,23.58
2017-03-29T12:00:43.094Z,23.57
2017-03-29T12:01:53.033Z,23.63
2017-03-29T12:03:03.257Z,23.6
2017-03-29T12:04:13.182Z,23.6
2017-03-29T12:05:22.795Z,23.58
2017-03-29T12:06:33.185Z,23.61
2017-03-29T12:07:43.117Z,23.69
2017-03-29T12:08:53.026Z,23.65
2017-03-29T12:10:02.927Z,23.63
2017-03-29T12:11:12.215Z,23.63
2017-03-29T12:12:21.984Z,23.61
2017-03-29T12:13:32.256Z,23.66
2017-03-29T12:14:41.879Z,23.69
2017-03-29T12:15:52.110Z,23.69
2017-03-29T12:17:02.353Z,23.68
2017-03-29T12:18:12.415Z,23.7
2017-03-29T12:19:22.329Z,23.66
2017-03-29T12:20:32.256Z,23.68
2017-03-29T12:21:41.868Z,23.66
2017-03-29T12:22:51.795Z,23.66
2017-03-29T12:24:01.893Z,23.61
2017-03-29T12:25:10.883Z,23.68
2017-03-29T12:26:21.097Z,23.65
2017-03-29T12:27:31.008Z,23.65
2017-03-29T12:28:40.931Z,23.69
2017-03-29T12:29:51.315Z,23.73
2017-03-29T12:31:01.526Z,23.75
2017-03-29T12:32:11.743Z,23.76
2017-03-29T12:33:21.644Z,23.65
2017-03-29T12:34:31.561Z,23.73
2017-03-29T12:35:41.648Z,23.73
2017-03-29T12:36:51.574Z,23.69
2017-03-29T12:38:00.876Z,23.68
2017-03-29T12:39:10.799Z,23.78
2017-03-29T12:40:20.411Z,23.73
2017-03-29T12:41:30.177Z,23.72
2017-03-29T12:42:40.413Z,23.68
2017-03-29T12:43:49.737Z,23.73
2017-03-29T12:44:59.675Z,23.78
2017-03-29T12:46:09.277Z,23.78
2017-03-29T12:47:19.032Z,23.7
2017-03-29T12:48:28.624Z,23.66
2017-03-29T12:49:38.864Z,23.8
2017-03-29T12:50:48.789Z,23.8
2017-03-29T12:51:58.727Z,23.78
2017-03-29T12:53:08.747Z,23.75
2017-03-29T12:54:18.957Z,23.68
2017-03-29T12:55:28.872Z,23.87
2017-03-29T12:56:39.098Z,23.65
2017-03-29T12:57:49.325Z,23.8
2017-03-29T12:58:59.377Z,23.68
2017-03-29T13:00:08.988Z,23.75
2017-03-29T13:01:18.906Z,23.69
2017-03-29T13:02:28.828Z,23.73
2017-03-29T13:03:38.433Z,23.69
2017-03-29T13:04:48.438Z,23.7
2017-03-29T13:05:58.663Z,23.79
2017-03-29T13:07:08.572Z,23.7
2017-03-29T13:08:18.182Z,23.7
2017-03-29T13:09:28.480Z,23.75
2017-03-29T13:10:38.500Z,23.69
2017-03-29T13:11:47.796Z,23.65
2017-03-29T13:12:57.716Z,23.69
2017-03-29T13:14:07.616Z,23.7
2017-03-29T13:15:17.523Z,23.68
2017-03-29T13:16:26.993Z,23.63
2017-03-29T13:17:36.903Z,23.68
2017-03-29T13:18:46.818Z,23.65
2017-03-29T13:19:56.747Z,23.66
2017-03-29T13:21:06.383Z,23.6
2017-03-29T13:22:16.171Z,23.68
2017-03-29T13:23:26.090Z,23.66
2017-03-29T13:24:36.003Z,23.61
2017-03-29T13:25:45.635Z,23.65
2017-03-29T13:26:55.590Z,23.65
2017-03-29T13:28:05.657Z,23.68
2017-03-29T13:29:15.603Z,23.63
2017-03-29T13:30:25.284Z,23.57
2017-03-29T13:31:35.236Z,23.63
2017-03-29T13:32:44.866Z,23.6
2017-03-29T13:33:54.644Z,23.68
2017-03-29T13:35:04.581Z,23.63
2017-03-29T13:36:14.499Z,23.63
2017-03-29T13:37:24.717Z,23.57
2017-03-29T13:38:34.960Z,23.6
2017-03-29T13:39:45.028Z,23.63
2017-03-29T13:40:55.420Z,23.63
2017-03-29T13:42:04.886Z,23.58
2017-03-29T13:43:14.636Z,23.63
2017-03-29T13:44:24.593Z,23.6
2017-03-29T13:45:34.363Z,23.57
2017-03-29T13:46:44.002Z,23.58
2017-03-29T13:47:54.255Z,23.57
2017-03-29T13:49:03.900Z,23.57
2017-03-29T13:50:14.186Z,23.57
2017-03-29T13:51:24.585Z,23.6
2017-03-29T13:52:34.194Z,23.55
2017-03-29T13:53:43.523Z,23.58
2017-03-29T13:54:53.133Z,23.58
2017-03-29T13:56:03.064Z,23.55
2017-03-29T13:57:12.816Z,23.57
2017-03-29T13:58:22.724Z,23.57
2017-03-29T13:59:32.985Z,23.6
2017-03-29T14:00:42.291Z,23.48
2017-03-29T14:01:52.690Z,23.55
2017-03-29T14:03:02.771Z,23.53
2017-03-29T14:04:12.392Z,23.53
2017-03-29T14:05:22.316Z,23.48
2017-03-29T14:06:31.986Z,23.53
2017-03-29T14:07:41.609Z,23.54
2017-03-29T14:08:51.518Z,23.55
2017-03-29T14:10:01.433Z,23.55
2017-03-29T14:11:11.684Z,23.53
2017-03-29T14:12:21.617Z,23.53
2017-03-29T14:13:31.544Z,23.5
2017-03-29T14:14:41.618Z,23.53
2017-03-29T14:15:51.766Z,23.46
2017-03-29T14:17:01.366Z,23.42
2017-03-29T14:18:10.670Z,23.5
2017-03-29T14:19:20.575Z,23.4
2017-03-29T14:20:30.637Z,23.4
2017-03-29T14:21:40.244Z,23.42
2017-03-29T14:22:50.154Z,23.48
2017-03-29T14:23:59.774Z,23.33
2017-03-29T14:25:09.697Z,23.42
2017-03-29T14:26:19.784Z,23.32
2017-03-29T14:27:29.404Z,23.36
2017-03-29T14:28:39.020Z,23.36
2017-03-29T14:29:48.619Z,23.35
2017-03-29T14:30:58.528Z,23.36
2017-03-29T14:32:08.909Z,23.35
2017-03-29T14:33:18.518Z,23.32
2017-03-29T14:34:28.134Z,23.35
2017-03-29T14:35:38.040Z,23.39
2017-03-29T14:36:47.735Z,23.39
2017-03-29T14:37:57.817Z,23.4
2017-03-29T14:39:08.063Z,23.43
2017-03-29T14:40:18.307Z,23.46
2017-03-29T14:41:27.618Z,23.43
2017-03-29T14:42:37.851Z,23.42
2017-03-29T14:43:47.945Z,23.39
2017-03-29T14:44:57.260Z,23.42
2017-03-29T14:46:06.893Z,23.39
2017-03-29T14:47:17.180Z,23.43
2017-03-29T14:48:27.087Z,23.43
2017-03-29T14:49:37.515Z,23.42
2017-03-29T14:50:47.166Z,23.42
2017-03-29T14:51:56.794Z,23.43
2017-03-29T14:53:07.014Z,23.39
2017-03-29T14:54:16.928Z,23.42
2017-03-29T14:55:27.319Z,23.4
2017-03-29T14:56:36.950Z,23.43
2017-03-29T14:57:47.174Z,23.46
2017-03-29T14:58:56.175Z,23.42
2017-03-29T15:00:05.788Z,23.38
2017-03-29T15:01:15.851Z,23.46
2017-03-29T15:02:25.773Z,23.35
2017-03-29T15:03:35.392Z,23.46
2017-03-29T15:04:44.682Z,23.42
2017-03-29T15:05:54.596Z,23.43
2017-03-29T15:07:04.385Z,23.39
2017-03-29T15:08:14.299Z,23.33